Portada
METAR-TAF:

METAR-TAF

Aeroports :

Brighton, Anglaterra

latitud: 50-50N, longitud: 000-17W, altitud: 2 m

Observació

L'informe es va fer fa 2 hores i 57 minuts, a les 16:50 UTC
Vent 10 kt del Nord-Est, variant entre Nord i Est
Temperatura 24°C
Humitat 38%
Pressió 1020 hPa
Visibilitat 10 km o més
sense núvols per sota de 1500 mi sense presència de cumulonimbus.

METAR: EGKA 011650Z 05010KT 350V080 CAVOK 24/09 Q1020

Hora: 20:47 (19:47 UTC)

Pronòstic

L'informe es va fer fa 5 hores i 48 minuts, a les 13:59 UTC
Pronòstic vàlid del 01 a les 15 UTC al 01 a les 24 UTC
Vent 10 kt del Est
Visibilitat 10 km o més
sense núvols per sota de 1500 mi sense presència de cumulonimbus.

TAF: EGKA 011359Z 0115/0124 09010KT CAVOK

Observacions i pronòstics meteorològics de més de 4000 aeroports (METAR i TAF).

Les estacions disponibles són els punts grocs i vermells al mapa.

Posi el ratolí al punt desitjat per veure el nom de l'estació.

Feu clic per veure les observacions i els pronòstics meteorològics.

Per canviar el mapa: feu clic els botons verds amb una creu de color negre per apropar; al botó verd amb un guió per allunyar la imatge; o en les fletxes verdes per a mapes adjacents.


METAR-TAF: